Terminal Aerodrome Forecast
Issued by NWS

Home | Current Version | Previous Version | Text Only | Print | Product List | Glossary Off
Versions: 1 2 3 4 5 6 7 8 9 10 11 12 13 14 15 16

000
FTUS43 KTOP 220500
TAFMHK
TAF
KMHK 220521Z 2206/2306 17011KT 6SM -DZ BR OVC009
     FM220900 18010KT 3SM -RA BR OVC007
     FM221900 27012KT 6SM -RA BKN015=

USA.gov is the U.S. government's official web portal to all federal, state and local government web resources and services.